LIMFLFMD

Guest
Details From LIMF - Torino Caselle
To LFMD - Mandelieu
Flight Number -
Tags decoded
Created
Modified
Stats Distance 146 nm / 271 km
Max Altitude 0 ft / 0 m
Waypoints 7
Social Downloads 0
Likes 0
Share VATSIM

Download

Looking for another format? Having issues loading an existing format? Contact us
Advertisement - Login to hide

Notes

Requested: LIMF TOP LEV ALB NIZ CNM LFMD

Route

LIMF TOP LEV ALB NIZ CNM LFMD

ID Type Via Altitude Latitude Longitude Leg Dist Tot Dist Heading (true) Name
O LIMF APT - 0 ft / 0 m 45.20076˚ 7.64963˚ - 0 nm - Torino Caselle
TOP NDB - 0 ft / 0 m 44.92472˚ 7.86056˚ 18 nm 18 nm 152° / 152° TORINO NDB
LEV GS - 0 ft / 0 m 44.55383˚ 7.62711˚ 24 nm 43 nm 204° / 204° GS
ALB VOR - 0 ft / 0 m 44.04817˚ 8.12762˚ 37 nm 80 nm 145° / 145° ALBENGA VOR-DME
NIZ VOR - 0 ft / 0 m 43.77064˚ 7.25439˚ 41 nm 121 nm 246° / 246° NICE COTE D AZUR VOR-DME
CNM VOR - 0 ft / 0 m 43.56036˚ 6.87094˚ 20 nm 142 nm 233° / 233° CANNES-Tanneron VOR
O LFMD APT - 0 ft / 0 m 43.54673˚ 6.95310˚ 3 nm 146 nm 103° / 103° Mandelieu

Altitude Profile

Advertisement - Login to hide

LIMF

Details ICAO LIMF (TRN)
Name Torino Caselle
Region Italy
Timezone Europe/Rome (UTC+1.0)
Stats Elevation 989 ft / 301 m (AMSL)
Location 45.200763° 7.649630°
Runways 1
Magnetic Variation 2.122° E

METAR

LIMF 160150Z 30004KT CAVOK 00/M05 Q0999

Decode

TAF

TAF LIMF 152300Z 1600/1624 VRB05KT CAVOK

Decode

Departure Runways

ID Width Length Bearing (true) Bearing (mag) Surface Threshold Offset Overrun Length
18 197 ft / 60 m 10,835 ft / 3,303 m 182.56° 180.44° Asphalt 2,378 ft / 725 m 970 ft / 296 m
36 197 ft / 60 m 10,835 ft / 3,303 m 2.56° 0.44° Asphalt 1,148 ft / 350 m 0 ft / 0 m

LFMD

Details ICAO LFMD (CEQ)
Name Mandelieu
Region France
Timezone Europe/Paris (UTC+1.0)
Stats Elevation 12 ft / 4 m (AMSL)
Location 43.546734° 6.953097°
Runways 3
Magnetic Variation 1.956° E

METAR

LFMD 160200Z AUTO 26013KT CAVOK 08/M03 Q1000

Decode

TAF

TAF LFMD 151900Z 1518/1615 CNL

Decode

Destination Runways

ID Width Length Bearing (true) Bearing (mag) Surface Threshold Offset Overrun Length
05 98 ft / 30 m 2,430 ft / 741 m 45.28° 43.32° Asphalt 295 ft / 90 m 0 ft / 0 m
17 148 ft / 45 m 5,287 ft / 1,611 m 172.58° 170.62° Asphalt 689 ft / 210 m 0 ft / 0 m
17L 164 ft / 50 m 1,872 ft / 571 m 172.60° 170.64° Grass 0 ft / 0 m 0 ft / 0 m
23 98 ft / 30 m 2,430 ft / 741 m 225.28° 223.32° Asphalt 98 ft / 30 m 0 ft / 0 m
35 148 ft / 45 m 5,287 ft / 1,611 m 352.58° 350.62° Asphalt 1,148 ft / 350 m 0 ft / 0 m
35R 164 ft / 50 m 1,872 ft / 571 m 352.60° 350.64° Grass 0 ft / 0 m 0 ft / 0 m

Approach Navaids

Runway Type Ident Frequency Range Bearing (true) Bearing (mag) Slope Elevation
35 Localiser CMD 110.35 MHz 18 nm / 33 km 347.58° 345.63° - 12 ft / 4 m (AMSL)